createdAt,value
2022-08-11T00:03:43.717Z,23.70
2022-08-11T00:08:50.492Z,23.73
2022-08-11T00:13:52.276Z,23.71
2022-08-11T00:18:56.423Z,23.67
2022-08-11T00:24:00.997Z,23.61
2022-08-11T00:29:10.166Z,23.58
2022-08-11T00:34:12.790Z,23.51
2022-08-11T00:39:16.015Z,23.50
2022-08-11T00:45:10.273Z,23.51
2022-08-11T00:50:42.977Z,23.50
2022-08-11T00:56:18.382Z,23.45
2022-08-11T01:01:27.410Z,23.41
2022-08-11T01:06:52.886Z,23.37
2022-08-11T01:12:09.623Z,23.27
2022-08-11T01:17:53.265Z,23.17
2022-08-11T01:23:18.170Z,23.07
2022-08-11T01:28:41.306Z,23.01
2022-08-11T01:34:23.302Z,22.98
2022-08-11T01:39:26.310Z,22.98
2022-08-11T01:44:39.858Z,22.95
2022-08-11T01:50:07.893Z,22.88
2022-08-11T01:55:29.494Z,22.85
2022-08-11T02:00:36.049Z,22.80
2022-08-11T02:06:02.365Z,22.75
2022-08-11T02:11:31.102Z,22.70
2022-08-11T02:17:02.401Z,22.68
2022-08-11T02:22:35.529Z,22.59
2022-08-11T02:27:45.335Z,22.55
2022-08-11T02:33:23.157Z,22.45
2022-08-11T02:38:49.510Z,22.45
2022-08-11T02:44:35.589Z,22.41
2022-08-11T02:50:02.779Z,22.39
2022-08-11T02:55:08.998Z,22.38
2022-08-11T03:00:17.565Z,22.32
2022-08-11T03:05:37.627Z,22.32
2022-08-11T03:11:21.226Z,22.28
2022-08-11T03:17:06.167Z,22.24
2022-08-11T03:22:13.302Z,22.22
2022-08-11T03:27:32.918Z,22.20
2022-08-11T03:33:09.775Z,22.16
2022-08-11T03:38:16.386Z,22.12
2022-08-11T03:43:39.146Z,22.10
2022-08-11T03:49:07.153Z,22.07
2022-08-11T03:54:28.492Z,22.00
2022-08-11T03:59:51.670Z,21.98
2022-08-11T04:05:38.481Z,21.99
2022-08-11T04:10:42.477Z,22.02
2022-08-11T04:16:11.429Z,22.05
2022-08-11T04:21:35.505Z,21.99
2022-08-11T04:27:07.230Z,21.92
2022-08-11T04:32:33.097Z,21.92
2022-08-11T04:38:08.675Z,21.89
2022-08-11T04:44:02.050Z,21.93
2022-08-11T04:49:44.972Z,21.92
2022-08-11T04:55:27.487Z,21.79
2022-08-11T05:00:57.952Z,21.84
2022-08-11T05:06:24.667Z,21.84
2022-08-11T05:11:50.568Z,21.87
2022-08-11T05:17:33.663Z,21.87
2022-08-11T05:22:55.201Z,21.89
2022-08-11T05:28:28.549Z,21.94
2022-08-11T05:34:03.489Z,22.07
2022-08-11T05:39:36.203Z,22.09
2022-08-11T05:44:57.915Z,22.00
2022-08-11T05:50:18.488Z,22.17
2022-08-11T05:56:02.970Z,22.29
2022-08-11T06:01:06.263Z,22.42
2022-08-11T06:06:10.077Z,22.46
2022-08-11T06:11:12.580Z,22.59
2022-08-11T06:16:21.055Z,22.75
2022-08-11T06:21:23.038Z,22.91
2022-08-11T06:26:25.422Z,23.06
2022-08-11T06:31:28.641Z,23.17
2022-08-11T06:36:47.262Z,23.40
2022-08-11T06:41:53.579Z,23.41
2022-08-11T06:47:00.933Z,23.63
2022-08-11T06:52:33.988Z,23.85
2022-08-11T06:57:48.640Z,24.00
2022-08-11T07:03:00.682Z,24.13
2022-08-11T07:08:49.549Z,24.29
2022-08-11T07:14:13.098Z,24.42
2022-08-11T07:19:38.903Z,24.67
2022-08-11T07:25:04.782Z,24.84
2022-08-11T07:30:09.896Z,24.98
2022-08-11T07:35:13.669Z,25.23
2022-08-11T07:40:26.376Z,25.36
2022-08-11T07:45:47.056Z,25.60
2022-08-11T07:51:07.864Z,25.90
2022-08-11T07:56:10.099Z,26.02
2022-08-11T08:01:41.988Z,26.29
2022-08-11T08:07:03.089Z,26.44
2022-08-11T08:12:24.421Z,26.61
2022-08-11T08:17:45.289Z,26.94
2022-08-11T08:23:08.432Z,26.95
2022-08-11T08:28:14.039Z,27.25
2022-08-11T08:33:27.240Z,27.68
2022-08-11T08:38:29.241Z,27.99
2022-08-11T08:43:32.661Z,28.18
2022-08-11T08:48:51.261Z,28.12
2022-08-11T08:54:01.567Z,28.23
2022-08-11T08:59:04.561Z,28.36
2022-08-11T09:04:12.255Z,28.54
2022-08-11T09:09:16.851Z,29.07
2022-08-11T09:14:51.650Z,29.08
2022-08-11T09:20:21.181Z,29.55
2022-08-11T09:25:45.267Z,29.91
2022-08-11T09:30:53.581Z,30.22
2022-08-11T09:35:55.615Z,30.78
2022-08-11T09:40:58.053Z,30.88
2022-08-11T09:46:00.941Z,31.02
2022-08-11T09:51:03.034Z,31.62
2022-08-11T09:56:33.884Z,31.61
2022-08-11T10:01:47.329Z,31.22
2022-08-11T10:07:05.405Z,31.56
2022-08-11T10:12:12.058Z,31.82
2022-08-11T10:17:15.987Z,32.37
2022-08-11T10:22:51.501Z,32.00
2022-08-11T10:28:28.982Z,32.24
2022-08-11T10:33:42.855Z,32.19
2022-08-11T10:38:52.454Z,35.49
2022-08-11T10:44:02.403Z,34.53
2022-08-11T10:49:05.334Z,34.47
2022-08-11T10:54:25.340Z,34.46
2022-08-11T10:59:30.250Z,35.14
2022-08-11T11:04:58.265Z,35.26
2022-08-11T11:10:04.024Z,35.73
2022-08-11T11:15:25.385Z,36.16
2022-08-11T11:20:40.776Z,36.77
2022-08-11T11:26:14.369Z,37.25
2022-08-11T11:31:51.565Z,37.82
2022-08-11T11:36:58.436Z,37.44
2022-08-11T11:42:04.175Z,37.27
2022-08-11T11:47:06.755Z,37.29
2022-08-11T11:52:13.529Z,37.15
2022-08-11T11:57:35.279Z,37.14
2022-08-11T12:02:37.777Z,36.51
2022-08-11T12:08:12.444Z,36.17
2022-08-11T12:13:36.002Z,35.74
2022-08-11T12:18:39.727Z,35.91
2022-08-11T12:24:04.454Z,36.12
2022-08-11T12:29:09.506Z,35.47
2022-08-11T12:34:13.781Z,35.46
2022-08-11T12:40:17.080Z,35.91
2022-08-11T12:45:24.862Z,36.10
2022-08-11T12:50:50.062Z,35.68
2022-08-11T12:56:12.138Z,35.42
2022-08-11T13:01:32.700Z,35.44
2022-08-11T13:06:34.446Z,35.18
2022-08-11T13:11:57.644Z,35.20
2022-08-11T13:17:19.201Z,34.79
2022-08-11T13:22:24.286Z,34.53
2022-08-11T13:27:26.579Z,34.61
2022-08-11T13:32:29.611Z,34.56
2022-08-11T13:38:19.131Z,34.67
2022-08-11T13:42:53.880Z,34.39
2022-08-11T13:47:57.311Z,34.20
2022-08-11T13:52:58.892Z,34.09
2022-08-11T13:58:09.172Z,34.03
2022-08-11T14:03:26.074Z,33.81
2022-08-11T14:08:49.290Z,33.68
2022-08-11T14:13:52.306Z,33.38
2022-08-11T14:18:57.445Z,33.13
2022-08-11T14:24:01.471Z,32.67
2022-08-11T14:29:08.181Z,32.51
2022-08-11T14:34:12.441Z,32.67
2022-08-11T14:39:18.486Z,32.69
2022-08-11T14:44:39.589Z,32.52
2022-08-11T14:49:56.110Z,32.45
2022-08-11T14:55:23.496Z,32.45
2022-08-11T15:00:25.804Z,32.36
2022-08-11T15:05:27.905Z,32.10
2022-08-11T15:10:29.978Z,31.85
2022-08-11T15:16:02.549Z,31.87
2022-08-11T15:21:26.017Z,31.79
2022-08-11T15:27:00.590Z,31.79
2022-08-11T15:32:20.361Z,31.73
2022-08-11T15:37:27.842Z,31.72
2022-08-11T15:42:49.407Z,31.59
2022-08-11T15:48:06.007Z,31.53
2022-08-11T15:53:25.603Z,31.51
2022-08-11T15:59:40.578Z,31.55
2022-08-11T16:04:24.823Z,31.56
2022-08-11T16:09:28.400Z,31.55
2022-08-11T16:14:59.208Z,31.52
2022-08-11T16:20:03.096Z,31.48
2022-08-11T16:27:02.835Z,31.41
2022-08-11T16:30:43.790Z,31.26
2022-08-11T16:36:05.130Z,31.19
2022-08-11T16:41:12.314Z,31.13
2022-08-11T16:46:37.851Z,31.09
2022-08-11T16:51:39.336Z,31.02
2022-08-11T16:56:48.014Z,30.94
2022-08-11T17:01:53.823Z,30.91
2022-08-11T17:07:23.408Z,30.84
2022-08-11T17:12:57.809Z,30.77
2022-08-11T17:18:02.543Z,30.72
2022-08-11T17:23:24.123Z,30.61
2022-08-11T17:28:26.080Z,30.49
2022-08-11T17:33:47.878Z,30.48
2022-08-11T17:38:50.706Z,30.46
2022-08-11T17:44:13.562Z,30.39
2022-08-11T17:49:16.306Z,30.31
2022-08-11T17:54:37.481Z,30.20
2022-08-11T17:59:53.734Z,30.05
2022-08-11T18:04:57.526Z,30.00
2022-08-11T18:10:19.922Z,29.87
2022-08-11T18:15:39.771Z,29.74
2022-08-11T18:21:10.550Z,29.57
2022-08-11T18:26:31.364Z,29.50
2022-08-11T18:31:53.790Z,29.38
2022-08-11T18:37:22.882Z,29.25
2022-08-11T18:42:46.438Z,29.11
2022-08-11T18:48:11.614Z,28.97
2022-08-11T18:53:33.773Z,28.90
2022-08-11T18:58:55.812Z,28.79
2022-08-11T19:04:19.119Z,28.67
2022-08-11T19:09:39.693Z,28.53
2022-08-11T19:15:01.151Z,28.44
2022-08-11T19:20:24.522Z,28.34
2022-08-11T19:25:45.911Z,28.23
2022-08-11T19:31:06.116Z,28.10
2022-08-11T19:36:27.314Z,27.99
2022-08-11T19:41:56.675Z,27.87
2022-08-11T19:47:19.317Z,27.74
2022-08-11T19:52:39.797Z,27.65
2022-08-11T19:58:01.203Z,27.49
2022-08-11T20:03:24.342Z,27.42
2022-08-11T20:08:45.754Z,27.31
2022-08-11T20:14:09.954Z,27.22
2022-08-11T20:19:54.817Z,27.10
2022-08-11T20:25:14.662Z,26.96
2022-08-11T20:30:35.262Z,26.86
2022-08-11T20:35:57.676Z,26.73
2022-08-11T20:41:20.031Z,26.57
2022-08-11T20:46:42.066Z,26.48
2022-08-11T20:52:06.299Z,26.35
2022-08-11T20:57:59.159Z,26.30
2022-08-11T21:03:10.588Z,26.11
2022-08-11T21:08:34.107Z,26.03
2022-08-11T21:13:59.051Z,25.94
2022-08-11T21:20:06.585Z,25.86
2022-08-11T21:25:08.587Z,25.84
2022-08-11T21:30:29.012Z,25.81
2022-08-11T21:35:51.324Z,25.76
2022-08-11T21:41:12.789Z,25.66
2022-08-11T21:46:33.809Z,25.60
2022-08-11T21:51:56.168Z,25.57
2022-08-11T21:57:17.006Z,25.55
2022-08-11T22:02:38.238Z,25.53
2022-08-11T22:07:59.016Z,25.44
2022-08-11T22:13:19.088Z,25.37
2022-08-11T22:18:40.418Z,25.27
2022-08-11T22:24:02.052Z,25.16
2022-08-11T22:29:38.182Z,25.09
2022-08-11T22:35:02.763Z,25.03
2022-08-11T22:40:23.010Z,25.03
2022-08-11T22:45:43.220Z,24.97
2022-08-11T22:51:03.982Z,24.93
2022-08-11T22:56:32.983Z,24.88
2022-08-11T23:01:55.423Z,24.85
2022-08-11T23:07:50.404Z,24.82
2022-08-11T23:13:01.077Z,24.73
2022-08-11T23:18:21.936Z,24.66
2022-08-11T23:23:42.378Z,24.59
2022-08-11T23:29:05.836Z,24.57
2022-08-11T23:35:02.981Z,24.53
2022-08-11T23:40:10.709Z,24.51
2022-08-11T23:45:31.499Z,24.38
2022-08-11T23:50:54.166Z,24.31
2022-08-11T23:56:14.256Z,24.24
